Peever, South Dakota
Current Conditions -  °F | °C
As of 2:36 PM on Saturday 25 Oct 2014 (Local Time) from KETH Reporting Station
Clear Clear  
Wind Chill: 61°   Ceiling: Unl
Heat Index: 61°   Visibility: 10mi
Dew Point: 30°   Wind: 12mph
Humidity: 31%   Direction: 310°NW
Pressure: 30.11"   Gusts: 17mph
Location:  45.54°N, 96.95°W
Report Text: KETH 251936Z AUTO 31010G15KT 10SM CLR 16/M01 A3011 RMK AO2
Loading
Personal Weather Stations






























Interactive Weather Map
Tropical Storm Tracking
New forecast layout! Learn more

10-Day Weather Forecast

Advertisements
Track Severe Weather on mobile